Terminal Aerodrome Forecast
Issued by NWS

Home | Current Version | Previous Version | Text Only | Print | Product List | Glossary On
Versions: 1 2 3 4 5 6 7 8 9 10 11 12 13
000
FTUS44 KLZK 031100
TAFADF
TAF
KADF 031135Z 0312/0412 22007KT P6SM VCSH SCT040 BKN080 OVC250
      TEMPO 0313/0317 5SM -TSRA BKN040CB OVC080
     FM031700 24009G16KT P6SM -RA VCTS SCT040CB BKN100 OVC250
     FM032000 24009G16KT P6SM -TSRA SCT040CB BKN100 OVC250=

USA.gov is the U.S. government's official web portal to all federal, state and local government web resources and services.